createdAt,value
2017-03-07T00:03:18.550Z,263.2
2017-03-07T00:14:17.559Z,267.1
2017-03-07T00:25:17.609Z,271.6
2017-03-07T00:36:17.948Z,268
2017-03-07T00:47:18.333Z,274.9
2017-03-07T00:58:17.960Z,272.8
2017-03-07T01:09:18.673Z,270.5
2017-03-07T01:20:18.339Z,272.5
2017-03-07T01:31:18.212Z,270.8
2017-03-07T01:42:19.941Z,272.2
2017-03-07T01:53:18.020Z,271.3
2017-03-07T02:04:17.937Z,268.1
2017-03-07T02:15:18.508Z,268.3
2017-03-07T02:26:18.245Z,269.2
2017-03-07T02:37:17.838Z,269.9
2017-03-07T02:48:18.295Z,269.4
2017-03-07T02:59:17.998Z,269.7
2017-03-07T03:10:17.738Z,270.4
2017-03-07T03:21:18.470Z,269.7
2017-03-07T03:32:18.221Z,270.7
2017-03-07T03:43:18.510Z,270
2017-03-07T03:54:18.159Z,270.5
2017-03-07T04:05:17.557Z,269.9
2017-03-07T04:16:17.964Z,271.1
2017-03-07T04:27:18.404Z,269.4
2017-03-07T04:38:17.506Z,278.9
2017-03-07T04:49:18.570Z,269.4
2017-03-07T05:00:18.679Z,270.9
2017-03-07T05:11:17.743Z,270.3
2017-03-07T05:22:18.081Z,272.3
2017-03-07T05:33:18.354Z,270.1
2017-03-07T05:44:18.652Z,270.4
2017-03-07T05:55:18.603Z,271.4
2017-03-07T06:06:18.786Z,269
2017-03-07T06:17:18.171Z,269.4
2017-03-07T06:28:18.114Z,271.7
2017-03-07T06:39:18.575Z,271.1
2017-03-07T06:50:18.693Z,271.9
2017-03-07T07:01:19.009Z,274.3
2017-03-07T07:12:18.582Z,272.2
2017-03-07T07:23:18.513Z,274.2
2017-03-07T07:34:18.482Z,272.6
2017-03-07T07:45:18.169Z,274
2017-03-07T07:56:17.921Z,270.4
2017-03-07T08:07:18.737Z,272.1
2017-03-07T08:18:17.907Z,275
2017-03-07T08:29:17.963Z,274.5
2017-03-07T08:40:18.824Z,275.4
2017-03-07T08:51:18.257Z,274.7
2017-03-07T09:02:18.247Z,273.6
2017-03-07T09:13:17.908Z,274.7
2017-03-07T09:24:18.552Z,274.5
2017-03-07T09:35:18.316Z,274.8
2017-03-07T09:46:18.018Z,275.1
2017-03-07T09:57:17.471Z,274.4
2017-03-07T10:08:18.416Z,274.9
2017-03-07T10:19:17.732Z,274.2
2017-03-07T10:30:17.846Z,274.9
2017-03-07T10:41:18.529Z,275.8
2017-03-07T10:52:18.368Z,274
2017-03-07T11:03:17.793Z,268.9
2017-03-07T11:14:17.803Z,274.1
2017-03-07T11:25:18.143Z,274.3
2017-03-07T11:36:18.176Z,273.5
2017-03-07T11:47:18.128Z,274.3
2017-03-07T11:58:17.864Z,275
2017-03-07T12:09:17.713Z,274
2017-03-07T12:20:18.896Z,274.3
2017-03-07T12:31:17.993Z,273.9
2017-03-07T12:42:18.129Z,274.1
2017-03-07T12:53:19.414Z,274.5
2017-03-07T13:04:18.828Z,273.8
2017-03-07T13:15:17.917Z,273.4
2017-03-07T13:26:17.713Z,274.3
2017-03-07T13:37:18.259Z,274.9
2017-03-07T13:48:18.579Z,275
2017-03-07T13:59:17.787Z,271.6
2017-03-07T14:10:18.185Z,270.6
2017-03-07T14:21:18.691Z,268.3
2017-03-07T14:32:18.321Z,269.1
2017-03-07T14:43:18.552Z,268.2
2017-03-07T14:54:18.352Z,268.3
2017-03-07T15:05:17.815Z,269.1
2017-03-07T15:16:18.425Z,269.4
2017-03-07T15:27:18.153Z,269.5
2017-03-07T15:38:18.592Z,269.1
2017-03-07T15:49:18.026Z,269.9
2017-03-07T16:00:18.161Z,270
2017-03-07T16:11:17.677Z,270.1
2017-03-07T16:22:18.315Z,269.7
2017-03-07T16:33:18.297Z,269.5
2017-03-07T16:44:18.125Z,269.6
2017-03-07T16:55:18.255Z,271.5
2017-03-07T17:06:18.716Z,269.8
2017-03-07T17:17:18.889Z,269.4
2017-03-07T17:28:17.967Z,268.9
2017-03-07T17:39:18.598Z,269.3
2017-03-07T17:50:18.018Z,269.1
2017-03-07T18:01:18.142Z,268.8
2017-03-07T18:12:18.413Z,269.2
2017-03-07T18:23:18.167Z,269.4
2017-03-07T18:34:18.780Z,269.3
2017-03-07T18:45:17.990Z,269.3
2017-03-07T18:56:18.459Z,269
2017-03-07T19:07:18.624Z,272.1
2017-03-07T19:18:17.758Z,270.8
2017-03-07T19:29:18.489Z,269.6
2017-03-07T19:40:18.076Z,270.1
2017-03-07T19:51:17.971Z,269.7
2017-03-07T20:02:18.731Z,269.7
2017-03-07T20:13:18.214Z,269.4
2017-03-07T20:24:18.656Z,270.4
2017-03-07T20:35:18.096Z,269
2017-03-07T20:46:17.956Z,273.4
2017-03-07T20:57:17.672Z,272.4
2017-03-07T21:08:17.927Z,272.2
2017-03-07T21:19:18.640Z,273.2
2017-03-07T21:30:18.227Z,272.3
2017-03-07T21:41:18.185Z,273.1
2017-03-07T21:52:17.679Z,272.6
2017-03-07T22:03:18.589Z,272.8
2017-03-07T22:14:18.428Z,273
2017-03-07T22:25:18.613Z,272.7
2017-03-07T22:36:18.168Z,273.3
2017-03-07T22:47:17.962Z,273.5
2017-03-07T22:58:18.307Z,273.8
2017-03-07T23:09:18.298Z,274
2017-03-07T23:20:18.363Z,272.4
2017-03-07T23:31:18.428Z,272.9
2017-03-07T23:42:18.024Z,269.9
2017-03-07T23:53:18.700Z,273.3
